Time;durP1;ratioP1;P1;durP2;ratioP2;P2;SDS_P1;SDS_P2;PMS_P1;PMS_P2;Temp;Humidity;BMP_temperature;BMP_pressure;BME280_temperature;BME280_humidity;BME280_pressure;Samples;Min_cycle;Max_cycle;Signal;HPM_P1;HPM_P2
2023/07/23 00:01:11;;;;;;;40.00;28.50;;;27.80;99.90;;;;;;5093062;28;20020;-71
2023/07/23 00:03:37;;;;;;;40.67;28.13;;;27.80;99.90;;;;;;5093222;28;20382;-67
2023/07/23 00:06:04;;;;;;;43.35;27.80;;;27.90;99.90;;;;;;5092895;28;20030;-68
2023/07/23 00:08:31;;;;;;;46.28;29.67;;;27.80;99.90;;;;;;5092534;28;20083;-70
2023/07/23 00:10:58;;;;;;;48.70;31.23;;;27.90;99.90;;;;;;5092430;28;20028;-67
2023/07/23 00:13:25;;;;;;;44.40;30.17;;;27.70;99.90;;;;;;5096060;28;20035;-68
2023/07/23 00:15:51;;;;;;;46.08;31.17;;;27.70;99.90;;;;;;5087827;28;20036;-69
2023/07/23 00:18:18;;;;;;;39.15;29.20;;;27.90;99.90;;;;;;5075889;28;20071;-69
2023/07/23 00:20:44;;;;;;;40.28;28.33;;;27.80;99.90;;;;;;5075563;28;20402;-68
2023/07/23 00:23:11;;;;;;;43.58;30.10;;;27.70;99.90;;;;;;5075577;28;20028;-68
2023/07/23 00:25:37;;;;;;;39.53;27.88;;;27.80;99.90;;;;;;5075625;28;20027;-68
2023/07/23 00:28:04;;;;;;;46.55;28.33;;;27.80;99.90;;;;;;5075456;28;20029;-68
2023/07/23 00:30:30;;;;;;;46.42;27.35;;;27.90;99.90;;;;;;5075318;28;20024;-68
2023/07/23 00:32:57;;;;;;;40.47;25.80;;;28.00;99.90;;;;;;5075526;28;20020;-70
2023/07/23 00:35:23;;;;;;;44.42;26.73;;;28.10;99.90;;;;;;5075323;28;20032;-70
2023/07/23 00:37:50;;;;;;;41.10;26.50;;;28.20;99.90;;;;;;5075227;28;20033;-70
2023/07/23 00:40:16;;;;;;;45.38;26.75;;;28.20;99.90;;;;;;5075520;28;20032;-69
2023/07/23 00:42:43;;;;;;;42.22;26.75;;;28.40;99.90;;;;;;5075385;28;20048;-72
2023/07/23 00:45:10;;;;;;;46.92;29.02;;;28.40;99.90;;;;;;5075087;28;20021;-71
2023/07/23 00:47:37;;;;;;;70.60;28.80;;;28.50;99.90;;;;;;5075332;28;20351;-70
2023/07/23 00:50:04;;;;;;;57.65;28.55;;;28.50;99.90;;;;;;5075191;28;20401;-68
2023/07/23 00:52:31;;;;;;;48.80;29.80;;;28.50;99.90;;;;;;5075091;28;20074;-70
2023/07/23 00:54:58;;;;;;;44.33;30.42;;;28.60;99.90;;;;;;5075069;28;20444;-69
2023/07/23 00:57:24;;;;;;;45.47;27.60;;;28.50;99.90;;;;;;5075185;28;20025;-68
2023/07/23 00:59:51;;;;;;;35.55;26.27;;;28.70;99.90;;;;;;5075104;28;20024;-68
2023/07/23 01:02:17;;;;;;;37.58;25.48;;;28.70;99.90;;;;;;5074651;28;20051;-70
2023/07/23 01:04:44;;;;;;;37.53;23.27;;;28.60;99.90;;;;;;5074946;28;20479;-68
2023/07/23 01:07:12;;;;;;;34.45;25.45;;;28.60;99.90;;;;;;5074979;28;20435;-67
2023/07/23 01:09:39;;;;;;;40.30;25.80;;;28.70;99.90;;;;;;5074819;28;20044;-68
2023/07/23 01:12:06;;;;;;;37.13;23.38;;;28.80;99.90;;;;;;5074747;28;20024;-70
2023/07/23 01:14:33;;;;;;;35.63;23.42;;;28.80;99.90;;;;;;5074794;28;20486;-67
2023/07/23 01:17:01;;;;;;;32.60;21.83;;;28.80;99.90;;;;;;5074594;28;20043;-69
2023/07/23 01:19:27;;;;;;;30.02;21.75;;;28.80;99.90;;;;;;5074758;28;20390;-68
2023/07/23 01:22:00;;;;;;;34.40;21.40;;;28.80;99.90;;;;;;5074608;28;20024;-67
2023/07/23 01:24:28;;;;;;;32.38;21.00;;;28.80;99.90;;;;;;5073808;28;20059;-69
2023/07/23 01:26:54;;;;;;;31.13;21.33;;;28.90;99.90;;;;;;5074394;28;20028;-70
2023/07/23 01:29:21;;;;;;;40.75;25.67;;;28.90;99.90;;;;;;5079633;28;20051;-67
2023/07/23 01:31:47;;;;;;;31.63;21.65;;;28.90;99.90;;;;;;5092922;28;20043;-67
2023/07/23 01:34:14;;;;;;;34.80;21.17;;;29.10;99.90;;;;;;5094850;28;20032;-67
2023/07/23 01:36:42;;;;;;;43.95;23.52;;;29.00;99.90;;;;;;5094764;28;20085;-67
2023/07/23 01:39:08;;;;;;;39.55;22.20;;;29.10;99.90;;;;;;5094372;28;20028;-70
2023/07/23 01:41:35;;;;;;;31.67;22.45;;;29.20;99.90;;;;;;5094157;28;20086;-68
2023/07/23 01:44:02;;;;;;;33.25;21.80;;;29.20;99.90;;;;;;5077864;28;20071;-68
2023/07/23 01:46:28;;;;;;;34.60;20.83;;;29.10;99.90;;;;;;5074089;28;20053;-68
2023/07/23 01:48:55;;;;;;;32.25;23.00;;;29.10;99.90;;;;;;5074155;28;20024;-68
2023/07/23 01:51:21;;;;;;;32.03;21.50;;;29.10;99.90;;;;;;5073913;28;20087;-68
2023/07/23 01:53:48;;;;;;;37.33;22.73;;;29.20;99.90;;;;;;5073837;28;20056;-69
2023/07/23 01:56:14;;;;;;;41.58;26.15;;;29.20;99.90;;;;;;5073883;28;20043;-68
2023/07/23 01:58:41;;;;;;;36.15;26.05;;;29.30;99.90;;;;;;5073991;28;20479;-70
2023/07/23 02:01:08;;;;;;;34.38;25.33;;;29.30;99.90;;;;;;5073672;28;20103;-68
2023/07/23 02:03:34;;;;;;;35.85;22.77;;;29.30;99.90;;;;;;5073693;28;20052;-71
2023/07/23 02:06:02;;;;;;;31.73;23.05;;;29.40;99.90;;;;;;5073664;28;20063;-67
2023/07/23 02:08:29;;;;;;;31.05;22.25;;;29.40;99.90;;;;;;5073503;28;20426;-68
2023/07/23 02:11:06;;;;;;;38.67;26.52;;;29.50;99.90;;;;;;5073604;28;20025;-68
2023/07/23 02:13:32;;;;;;;30.05;21.48;;;29.50;99.90;;;;;;5073463;28;20562;-69
2023/07/23 02:15:59;;;;;;;28.95;21.30;;;29.60;99.90;;;;;;5073393;28;20427;-67
2023/07/23 02:18:25;;;;;;;26.63;20.98;;;29.60;99.90;;;;;;5073617;28;20032;-70
2023/07/23 02:20:52;;;;;;;43.20;31.90;;;29.70;99.90;;;;;;5072364;28;20611;-70
2023/07/23 02:23:18;;;;;;;35.67;24.95;;;29.80;99.90;;;;;;5073211;28;20028;-69
2023/07/23 02:25:48;;;;;;;30.30;21.13;;;29.80;99.90;;;;;;5073314;28;20035;-68
2023/07/23 02:28:15;;;;;;;35.83;22.95;;;29.80;99.90;;;;;;5073334;28;20285;-70
2023/07/23 02:30:42;;;;;;;27.75;18.85;;;30.00;99.90;;;;;;5073465;28;20024;-71
2023/07/23 02:33:08;;;;;;;30.20;21.13;;;30.10;99.90;;;;;;5073334;28;20028;-66
2023/07/23 02:35:38;;;;;;;27.98;18.95;;;30.10;99.90;;;;;;5073071;28;20103;-68
2023/07/23 02:38:05;;;;;;;26.30;17.75;;;30.20;99.90;;;;;;5073089;28;20398;-71
2023/07/23 02:40:33;;;;;;;28.60;18.80;;;30.20;99.90;;;;;;5073176;28;20028;-68
2023/07/23 02:43:00;;;;;;;28.02;17.38;;;30.20;99.90;;;;;;5072994;28;20072;-68
2023/07/23 02:45:28;;;;;;;23.75;18.38;;;30.10;99.90;;;;;;5072922;28;20028;-71
2023/07/23 02:47:54;;;;;;;25.70;18.08;;;30.10;99.90;;;;;;5073170;28;20024;-68
2023/07/23 02:50:21;;;;;;;30.65;22.85;;;30.20;99.90;;;;;;5072852;28;20078;-68
2023/07/23 02:52:47;;;;;;;34.08;23.48;;;30.20;99.90;;;;;;5072910;28;20487;-69
2023/07/23 02:55:14;;;;;;;34.00;22.88;;;30.30;99.90;;;;;;5073140;28;20036;-69
2023/07/23 02:57:40;;;;;;;26.75;19.75;;;30.30;99.90;;;;;;5072680;28;20024;-67
2023/07/23 03:00:08;;;;;;;39.65;27.48;;;30.40;99.90;;;;;;5072613;28;20557;-67
2023/07/23 03:02:35;;;;;;;37.13;24.30;;;30.50;99.90;;;;;;5072703;28;20032;-68
2023/07/23 03:05:01;;;;;;;38.75;24.73;;;30.60;99.90;;;;;;5072698;28;20091;-68
2023/07/23 03:07:32;;;;;;;34.95;23.05;;;30.60;99.90;;;;;;5072578;28;20028;-67
2023/07/23 03:09:59;;;;;;;22.25;17.58;;;30.50;99.90;;;;;;5072765;28;20379;-70
2023/07/23 03:12:25;;;;;;;28.13;18.65;;;30.50;99.90;;;;;;5073240;28;20444;-69
2023/07/23 03:14:53;;;;;;;44.38;29.92;;;30.50;99.90;;;;;;5073100;28;20013;-70
2023/07/23 03:17:22;;;;;;;31.70;21.45;;;30.50;99.90;;;;;;5073219;28;20598;-69
2023/07/23 03:19:49;;;;;;;26.23;19.58;;;30.50;99.90;;;;;;5073317;28;20108;-70
2023/07/23 03:22:15;;;;;;;22.67;17.35;;;30.60;99.90;;;;;;5073012;28;20036;-70
2023/07/23 03:24:42;;;;;;;21.33;17.10;;;30.70;99.90;;;;;;5073464;28;20020;-70
2023/07/23 03:27:08;;;;;;;38.38;28.55;;;30.70;99.90;;;;;;5073155;28;20099;-72
2023/07/23 03:29:35;;;;;;;72.60;50.45;;;30.70;99.90;;;;;;5071839;28;20406;-70
2023/07/23 03:32:01;;;;;;;52.33;35.90;;;30.60;99.90;;;;;;5073099;28;20441;-71
2023/07/23 03:34:28;;;;;;;33.53;24.70;;;30.60;99.90;;;;;;5073040;28;20028;-70
2023/07/23 03:36:54;;;;;;;44.78;26.02;;;30.50;99.90;;;;;;5072864;28;20032;-71
2023/07/23 03:39:21;;;;;;;29.92;22.48;;;30.50;99.90;;;;;;5073207;28;20036;-68
2023/07/23 03:41:49;;;;;;;26.52;19.13;;;30.50;99.90;;;;;;5072890;28;20089;-71
2023/07/23 03:44:16;;;;;;;34.58;21.13;;;30.50;99.90;;;;;;5073399;28;20222;-68
2023/07/23 03:46:44;;;;;;;28.33;19.13;;;30.50;99.90;;;;;;5073322;28;20150;-68
2023/07/23 03:49:12;;;;;;;39.92;25.60;;;30.60;99.90;;;;;;5085351;28;20047;-66
2023/07/23 03:51:38;;;;;;;31.88;20.50;;;30.60;99.90;;;;;;5097177;28;20035;-68
2023/07/23 03:54:05;;;;;;;21.95;17.20;;;30.70;99.90;;;;;;5097173;28;20028;-67
2023/07/23 03:56:31;;;;;;;34.97;20.05;;;30.80;99.90;;;;;;5096194;28;20482;-67
2023/07/23 03:58:58;;;;;;;30.55;19.63;;;30.90;99.90;;;;;;5080693;28;20033;-69
2023/07/23 04:01:24;;;;;;;229.75;160.43;;;31.00;99.90;;;;;;5076603;28;20120;-70
2023/07/23 04:03:51;;;;;;;142.13;105.85;;;30.90;99.90;;;;;;5075769;28;20027;-71
2023/07/23 04:06:17;;;;;;;59.72;45.67;;;31.00;99.90;;;;;;5076247;28;20024;-69
2023/07/23 04:08:44;;;;;;;46.67;36.00;;;31.10;99.90;;;;;;5076468;28;20078;-68
2023/07/23 04:11:10;;;;;;;22.88;17.20;;;31.10;99.90;;;;;;5074923;28;20025;-67
2023/07/23 04:13:37;;;;;;;23.10;16.60;;;31.20;99.90;;;;;;5074029;28;20032;-68
2023/07/23 04:16:12;;;;;;;21.85;16.48;;;31.20;99.90;;;;;;5075015;28;20025;-68
2023/07/23 04:18:48;;;;;;;25.35;17.15;;;31.10;99.90;;;;;;5074726;28;20580;-68
2023/07/23 04:21:18;;;;;;;21.30;16.83;;;31.10;99.90;;;;;;5074548;28;20086;-67
2023/07/23 04:23:47;;;;;;;38.33;24.50;;;31.10;99.90;;;;;;5074403;28;20036;-66
2023/07/23 04:26:14;;;;;;;38.97;24.30;;;31.10;99.90;;;;;;5074503;28;20025;-67
2023/07/23 04:28:41;;;;;;;25.50;18.15;;;31.10;99.90;;;;;;5074530;28;20491;-67
2023/07/23 04:31:08;;;;;;;22.92;17.52;;;31.30;99.90;;;;;;5074453;28;20059;-67
2023/07/23 04:33:34;;;;;;;29.48;21.38;;;31.30;99.90;;;;;;5074465;28;20035;-66
2023/07/23 04:36:01;;;;;;;25.35;18.02;;;31.30;99.90;;;;;;5073996;28;20029;-66
2023/07/23 04:38:27;;;;;;;22.55;15.20;;;31.40;99.90;;;;;;5074241;28;20515;-65
2023/07/23 04:40:54;;;;;;;23.50;14.68;;;31.50;99.90;;;;;;5074098;28;20036;-65
2023/07/23 04:43:20;;;;;;;22.05;13.88;;;31.50;99.90;;;;;;5074028;28;20033;-67
2023/07/23 04:45:47;;;;;;;20.10;13.57;;;31.60;99.90;;;;;;5073639;28;20017;-67
2023/07/23 04:48:14;;;;;;;18.52;13.30;;;31.70;99.90;;;;;;5074173;28;20486;-66
2023/07/23 04:50:41;;;;;;;16.42;12.57;;;31.70;99.90;;;;;;5074218;28;20031;-67
2023/07/23 04:53:08;;;;;;;17.98;13.43;;;31.80;99.90;;;;;;5073870;28;20025;-67
2023/07/23 04:55:34;;;;;;;20.42;13.98;;;31.80;99.90;;;;;;5074222;28;20450;-65
2023/07/23 04:58:01;;;;;;;24.27;14.13;;;31.90;99.90;;;;;;5073019;28;20028;-70
2023/07/23 05:00:28;;;;;;;18.20;12.40;;;31.90;99.90;;;;;;5073350;28;20029;-65
2023/07/23 05:02:54;;;;;;;23.73;13.18;;;31.90;99.90;;;;;;5073705;28;20040;-65
2023/07/23 05:05:21;;;;;;;22.58;15.32;;;31.90;99.90;;;;;;5073184;28;20034;-66
2023/07/23 05:07:48;;;;;;;17.25;13.80;;;31.90;99.90;;;;;;5073905;28;20028;-67
2023/07/23 05:10:14;;;;;;;24.80;15.32;;;32.00;99.90;;;;;;5073851;28;20024;-66
2023/07/23 05:12:41;;;;;;;20.85;15.98;;;32.00;99.90;;;;;;5073014;28;20154;-69
2023/07/23 05:15:13;;;;;;;22.10;14.05;;;32.20;99.90;;;;;;5073607;28;20051;-64
2023/07/23 05:17:41;;;;;;;18.35;13.95;;;32.30;99.90;;;;;;5073433;28;20032;-66
2023/07/23 05:20:09;;;;;;;21.77;13.85;;;32.30;99.90;;;;;;5073198;28;20482;-67
2023/07/23 05:22:38;;;;;;;21.27;15.23;;;32.30;99.90;;;;;;5073456;28;20032;-65
2023/07/23 05:25:05;;;;;;;19.98;14.43;;;32.30;99.90;;;;;;5073399;28;20021;-65
2023/07/23 05:27:32;;;;;;;19.33;13.43;;;32.30;99.90;;;;;;5073232;28;20131;-71
2023/07/23 05:29:58;;;;;;;16.92;13.75;;;32.40;99.90;;;;;;5073484;28;20012;-70
2023/07/23 05:32:25;;;;;;;21.60;14.70;;;32.40;99.90;;;;;;5073391;28;20013;-66
2023/07/23 05:34:53;;;;;;;27.80;15.48;;;32.30;99.90;;;;;;5073023;28;20028;-66
2023/07/23 05:37:20;;;;;;;24.45;17.25;;;32.20;99.90;;;;;;5073280;28;20039;-65
2023/07/23 05:39:48;;;;;;;28.10;18.05;;;32.20;99.90;;;;;;5073156;28;20058;-67
2023/07/23 05:42:15;;;;;;;25.92;17.63;;;32.30;99.90;;;;;;5072728;28;20044;-66
2023/07/23 05:44:41;;;;;;;22.98;15.50;;;32.30;99.90;;;;;;5073056;28;20113;-66
2023/07/23 05:47:08;;;;;;;23.88;16.63;;;32.40;99.90;;;;;;5072953;28;20035;-65
2023/07/23 05:49:34;;;;;;;26.38;17.85;;;32.30;99.90;;;;;;5072862;28;20028;-65
2023/07/23 05:52:02;;;;;;;23.95;17.30;;;32.40;99.90;;;;;;5073049;28;20047;-65
2023/07/23 05:54:29;;;;;;;23.55;16.55;;;32.50;99.90;;;;;;5072877;28;20029;-65
2023/07/23 05:56:55;;;;;;;22.48;16.80;;;32.60;99.90;;;;;;5072662;28;20493;-65
2023/07/23 05:59:22;;;;;;;34.85;22.00;;;32.70;99.90;;;;;;5072773;28;20040;-66
2023/07/23 06:01:49;;;;;;;25.30;16.58;;;32.80;99.90;;;;;;5072641;28;20052;-66
2023/07/23 06:04:16;;;;;;;26.63;16.38;;;32.70;99.90;;;;;;5072398;28;20108;-66
2023/07/23 06:06:43;;;;;;;20.73;17.35;;;32.60;99.90;;;;;;5072629;28;20112;-65
2023/07/23 06:09:10;;;;;;;25.25;15.70;;;32.60;99.90;;;;;;5072665;28;20076;-69
2023/07/23 06:11:36;;;;;;;20.60;15.93;;;32.50;99.90;;;;;;5072208;28;20090;-69
2023/07/23 06:14:03;;;;;;;22.35;15.85;;;32.60;99.90;;;;;;5077652;28;20090;-66
2023/07/23 06:16:31;;;;;;;22.15;15.95;;;32.60;99.90;;;;;;5083895;28;20378;-66
2023/07/23 06:18:58;;;;;;;27.52;18.10;;;32.70;99.90;;;;;;5092498;28;20024;-67
2023/07/23 06:21:25;;;;;;;24.77;16.98;;;32.80;99.90;;;;;;5092566;28;20148;-67
2023/07/23 06:23:53;;;;;;;24.02;17.60;;;32.90;99.90;;;;;;5092613;28;20074;-66
2023/07/23 06:26:19;;;;;;;19.95;16.55;;;33.00;99.90;;;;;;5092312;28;20039;-66
2023/07/23 06:28:46;;;;;;;24.77;17.25;;;32.90;99.90;;;;;;5092728;28;20506;-68
2023/07/23 06:31:12;;;;;;;25.85;17.25;;;32.90;99.90;;;;;;5092687;28;20028;-65
2023/07/23 06:33:39;;;;;;;23.08;16.65;;;32.80;99.90;;;;;;5092148;28;20032;-64
2023/07/23 06:36:05;;;;;;;24.88;18.00;;;32.70;99.90;;;;;;5075880;28;20041;-69
2023/07/23 06:38:32;;;;;;;23.27;17.40;;;32.70;99.90;;;;;;5072064;28;20066;-66
2023/07/23 06:40:58;;;;;;;23.45;17.05;;;32.70;99.90;;;;;;5071673;28;20044;-65
2023/07/23 06:43:27;;;;;;;20.33;16.90;;;32.70;99.90;;;;;;5071774;28;20031;-65
2023/07/23 06:45:53;;;;;;;30.08;17.63;;;32.70;99.90;;;;;;5074790;28;20038;-65
2023/07/23 06:48:21;;;;;;;21.55;16.35;;;32.90;99.90;;;;;;5077592;28;20043;-66
2023/07/23 06:50:48;;;;;;;26.25;17.63;;;32.90;99.90;;;;;;5081325;28;20103;-66
2023/07/23 06:53:15;;;;;;;24.27;17.52;;;32.90;99.90;;;;;;5082547;28;20695;-66
2023/07/23 06:56:01;;;;;;;26.70;17.15;;;32.90;99.90;;;;;;5077897;28;20072;-68
2023/07/23 06:58:30;;;;;;;22.38;18.05;;;32.80;99.90;;;;;;5079932;28;20032;-69
2023/07/23 07:00:57;;;;;;;20.00;17.45;;;32.80;99.90;;;;;;5079947;28;20081;-69
2023/07/23 07:03:24;;;;;;;23.15;17.73;;;32.80;99.90;;;;;;5081510;28;20031;-64
2023/07/23 07:05:51;;;;;;;25.13;18.58;;;32.90;99.90;;;;;;5081701;28;20017;-64
2023/07/23 07:08:18;;;;;;;28.33;18.75;;;33.00;99.90;;;;;;5079954;28;20013;-65
2023/07/23 07:10:46;;;;;;;23.58;18.17;;;32.90;99.90;;;;;;5082263;28;20391;-65
2023/07/23 07:13:13;;;;;;;20.58;17.15;;;32.90;99.90;;;;;;5081064;28;20028;-66
2023/07/23 07:15:42;;;;;;;25.83;17.92;;;32.90;99.90;;;;;;5081978;28;20600;-64
2023/07/23 07:18:08;;;;;;;23.73;17.90;;;32.90;99.90;;;;;;5080218;28;20058;-69
2023/07/23 07:20:35;;;;;;;29.60;19.85;;;32.90;99.90;;;;;;5080661;28;20027;-65
2023/07/23 07:23:01;;;;;;;24.15;19.77;;;32.90;99.90;;;;;;5081209;28;20027;-66
2023/07/23 07:25:28;;;;;;;22.17;18.13;;;32.90;99.90;;;;;;5080497;28;20115;-67
2023/07/23 07:27:54;;;;;;;22.13;17.98;;;33.00;99.90;;;;;;5080784;28;20012;-68
2023/07/23 07:30:21;;;;;;;24.40;17.58;;;33.10;99.90;;;;;;5082129;28;20073;-66
2023/07/23 07:32:47;;;;;;;27.13;19.08;;;33.20;99.90;;;;;;5080420;28;20078;-66
2023/07/23 07:35:14;;;;;;;20.77;17.73;;;33.20;99.90;;;;;;5080812;28;20043;-67
2023/07/23 07:37:40;;;;;;;27.45;19.05;;;33.20;99.90;;;;;;5082877;28;20042;-66
2023/07/23 07:40:10;;;;;;;23.23;18.40;;;33.10;99.90;;;;;;5081320;28;20028;-66
2023/07/23 07:42:37;;;;;;;25.98;19.23;;;33.10;99.90;;;;;;5081757;28;20398;-70
2023/07/23 07:45:04;;;;;;;26.23;18.10;;;33.00;99.90;;;;;;5083502;28;20047;-70
2023/07/23 07:47:30;;;;;;;24.92;21.27;;;33.00;99.90;;;;;;5082223;28;20012;-67
2023/07/23 07:49:57;;;;;;;56.67;43.33;;;33.10;99.90;;;;;;5081771;28;20017;-68
2023/07/23 07:52:23;;;;;;;56.47;44.35;;;33.10;99.90;;;;;;5083479;28;20012;-70
2023/07/23 07:54:50;;;;;;;82.15;57.88;;;33.10;99.90;;;;;;5081992;28;20012;-66
2023/07/23 07:57:17;;;;;;;24.58;21.45;;;33.20;99.90;;;;;;5081998;28;20012;-68
2023/07/23 07:59:43;;;;;;;71.43;56.92;;;33.40;99.90;;;;;;5075364;28;20074;-66
2023/07/23 08:02:10;;;;;;;50.30;35.17;;;33.50;99.90;;;;;;5078688;28;20492;-67
2023/07/23 08:04:37;;;;;;;63.28;49.20;;;33.60;99.90;;;;;;5080420;28;20032;-66
2023/07/23 08:07:04;;;;;;;26.17;19.50;;;33.70;99.90;;;;;;5069835;28;20068;-64
2023/07/23 08:09:32;;;;;;;34.60;25.77;;;33.50;99.90;;;;;;5071447;28;20020;-65
2023/07/23 08:12:01;;;;;;;97.72;72.57;;;33.40;99.90;;;;;;5064926;28;20552;-65
2023/07/23 08:14:28;;;;;;;93.65;64.03;;;33.40;99.90;;;;;;5072697;28;20039;-65
2023/07/23 08:16:55;;;;;;;35.10;28.45;;;33.30;99.90;;;;;;5072643;28;20078;-67
2023/07/23 08:19:22;;;;;;;48.40;36.42;;;33.30;99.90;;;;;;5069892;28;20028;-64
2023/07/23 08:21:49;;;;;;;181.52;131.48;;;33.20;99.90;;;;;;5073155;28;20398;-65
2023/07/23 08:24:15;;;;;;;31.13;23.90;;;33.10;99.90;;;;;;5068610;28;20025;-65
2023/07/23 08:26:47;;;;;;;52.38;33.22;;;33.00;99.90;;;;;;5066620;28;20058;-65
2023/07/23 08:29:17;;;;;;;47.28;30.65;;;32.90;99.90;;;;;;5068481;28;20035;-65
2023/07/23 08:31:44;;;;;;;48.67;31.90;;;32.90;99.90;;;;;;5064433;28;20642;-65
2023/07/23 08:34:11;;;;;;;94.05;66.32;;;32.90;99.90;;;;;;5064395;28;20079;-65
2023/07/23 08:36:38;;;;;;;55.08;39.40;;;32.90;99.90;;;;;;5071844;28;20388;-64
2023/07/23 08:39:05;;;;;;;44.08;30.30;;;32.90;99.90;;;;;;5069780;28;20021;-65
2023/07/23 08:41:39;;;;;;;37.10;28.25;;;32.90;99.90;;;;;;5068153;28;20087;-67
2023/07/23 08:44:14;;;;;;;62.83;44.38;;;32.90;99.90;;;;;;5067501;28;20024;-66
2023/07/23 08:46:51;;;;;;;251.00;151.40;;;32.90;99.90;;;;;;5081804;28;20023;-65
2023/07/23 08:49:21;;;;;;;195.95;115.25;;;32.80;99.90;;;;;;5067748;28;20021;-65
2023/07/23 08:51:48;;;;;;;189.30;120.93;;;32.80;99.90;;;;;;5070454;28;20024;-64
2023/07/23 08:54:17;;;;;;;191.10;119.05;;;32.70;99.90;;;;;;5076108;28;20150;-65
2023/07/23 08:56:44;;;;;;;116.35;74.60;;;32.70;99.90;;;;;;5082276;28;20032;-66
2023/07/23 08:59:11;;;;;;;237.43;140.55;;;32.70;99.90;;;;;;5084948;28;20020;-65
2023/07/23 09:01:41;;;;;;;204.50;120.65;;;32.80;99.90;;;;;;5065216;28;20039;-66
2023/07/23 09:04:11;;;;;;;112.60;71.72;;;32.80;99.90;;;;;;5070470;28;20475;-67
2023/07/23 09:06:40;;;;;;;58.55;40.47;;;32.80;99.90;;;;;;5071672;28;20043;-67
2023/07/23 09:09:10;;;;;;;81.90;53.88;;;32.80;99.90;;;;;;5064105;28;20029;-67
2023/07/23 09:11:38;;;;;;;127.68;75.28;;;32.80;99.90;;;;;;5071816;28;20497;-66
2023/07/23 09:14:15;;;;;;;142.02;84.93;;;32.80;99.90;;;;;;5075231;28;20093;-67
2023/07/23 09:16:45;;;;;;;235.35;128.90;;;32.70;99.90;;;;;;5085231;28;20031;-66
2023/07/23 09:19:13;;;;;;;371.02;211.05;;;32.70;99.90;;;;;;5078779;28;20029;-68
2023/07/23 09:21:42;;;;;;;190.55;103.15;;;32.70;99.90;;;;;;5085980;28;20057;-65
2023/07/23 09:24:14;;;;;;;119.65;64.03;;;32.70;99.90;;;;;;5083015;28;20024;-67
2023/07/23 09:26:41;;;;;;;63.80;40.38;;;32.70;99.90;;;;;;5086320;28;20050;-66
2023/07/23 09:29:11;;;;;;;69.15;38.90;;;32.80;99.90;;;;;;5087900;28;20020;-68
2023/07/23 09:31:49;;;;;;;51.50;34.38;;;32.80;99.90;;;;;;5083947;28;20108;-65
2023/07/23 09:34:21;;;;;;;77.88;42.20;;;32.90;99.90;;;;;;5069816;28;20133;-69
2023/07/23 09:36:51;;;;;;;;;;;32.90;99.90;;;;;;5079519;28;20028;-67
2023/07/23 09:39:17;;;;;;;125.03;68.72;;;32.90;99.90;;;;;;5084155;28;19916;-67
2023/07/23 09:41:44;;;;;;;106.10;59.20;;;32.80;99.90;;;;;;5080920;28;20498;-66
2023/07/23 10:24:41;;;;;;;203.32;103.97;;;31.90;99.90;;;;;;5090131;27;21022;-64
2023/07/23 10:27:16;;;;;;;72.43;42.72;;;31.90;99.90;;;;;;5085928;28;20024;-65
2023/07/23 10:30:23;;;;;;;71.90;45.53;;;31.90;99.90;;;;;;5088905;28;20115;-67
2023/07/23 10:33:09;;;;;;;337.38;298.83;;;31.90;99.90;;;;;;5090436;28;20020;-66
2023/07/23 10:35:56;;;;;;;138.52;114.20;;;31.90;99.90;;;;;;5086542;28;20028;-64
2023/07/23 10:38:28;;;;;;;96.40;69.80;;;32.00;99.90;;;;;;5085623;28;20056;-66
2023/07/23 10:40:55;;;;;;;88.13;62.10;;;32.10;99.90;;;;;;5086887;28;20031;-66
2023/07/23 10:43:22;;;;;;;115.65;82.25;;;32.00;99.90;;;;;;5086093;28;20016;-66
2023/07/23 10:46:12;;;;;;;75.78;51.60;;;32.00;99.90;;;;;;5088044;28;20024;-67
2023/07/23 10:48:42;;;;;;;118.15;82.03;;;32.00;99.90;;;;;;5078679;28;20043;-67
2023/07/23 10:51:11;;;;;;;87.15;67.10;;;32.00;99.90;;;;;;5087918;28;20492;-66
2023/07/23 10:54:02;;;;;;;80.45;59.25;;;31.90;99.90;;;;;;5088766;28;20032;-66
2023/07/23 10:56:39;;;;;;;80.75;56.40;;;31.90;99.90;;;;;;5087780;28;20132;-65
2023/07/23 10:59:08;;;;;;;70.60;49.08;;;31.90;99.90;;;;;;5088243;28;20016;-66
2023/07/23 11:01:37;;;;;;;58.90;40.75;;;31.90;99.90;;;;;;5086188;28;20027;-65
2023/07/23 11:04:14;;;;;;;46.00;30.45;;;31.80;99.90;;;;;;5075972;28;20062;-67
2023/07/23 11:07:01;;;;;;;106.05;72.80;;;31.80;99.90;;;;;;5084768;28;20021;-67
2023/07/23 11:09:32;;;;;;;102.53;73.80;;;31.80;99.90;;;;;;5080953;28;20012;-66
2023/07/23 11:11:59;;;;;;;85.45;63.90;;;31.80;99.90;;;;;;5072945;28;20040;-65
2023/07/23 11:14:29;;;;;;;61.15;37.63;;;31.80;99.90;;;;;;5078029;28;20024;-65
2023/07/23 11:16:58;;;;;;;52.30;31.38;;;31.70;99.90;;;;;;5071827;28;20174;-69
2023/07/23 11:19:26;;;;;;;47.45;29.75;;;31.70;99.90;;;;;;5078846;28;20441;-66
2023/07/23 11:21:57;;;;;;;61.55;45.85;;;31.70;99.90;;;;;;5082308;28;20409;-65
2023/07/23 11:24:26;;;;;;;61.30;42.65;;;31.70;99.90;;;;;;5076231;28;20041;-66
2023/07/23 11:26:56;;;;;;;84.30;62.72;;;31.70;99.90;;;;;;5077173;28;20079;-66
2023/07/23 11:29:24;;;;;;;55.20;35.38;;;31.70;99.90;;;;;;5077612;28;20028;-72
2023/07/23 11:31:54;;;;;;;61.15;36.33;;;31.60;99.90;;;;;;5070269;28;20367;-64
2023/07/23 11:34:22;;;;;;;52.88;34.17;;;31.60;99.90;;;;;;5072646;28;20229;-66
2023/07/23 11:36:52;;;;;;;58.75;32.95;;;31.60;99.90;;;;;;5060884;28;20116;-68
2023/07/23 11:39:23;;;;;;;54.83;30.90;;;31.60;99.90;;;;;;5065299;28;20028;-65
2023/07/23 11:41:51;;;;;;;51.20;31.43;;;31.50;99.90;;;;;;5063666;28;20025;-65
2023/07/23 11:44:18;;;;;;;42.28;30.38;;;31.40;99.90;;;;;;5063843;28;20191;-66
2023/07/23 11:46:44;;;;;;;39.83;29.45;;;31.40;99.90;;;;;;5063971;28;20083;-65
2023/07/23 11:49:14;;;;;;;44.55;30.00;;;31.30;99.90;;;;;;5064575;28;20016;-67
2023/07/23 11:51:41;;;;;;;41.60;29.92;;;31.30;99.90;;;;;;5058192;28;20021;-70
2023/07/23 11:54:10;;;;;;;78.82;47.85;;;31.30;99.90;;;;;;5060738;28;20100;-67
2023/07/23 11:56:40;;;;;;;46.50;29.02;;;31.20;99.90;;;;;;5063954;28;20470;-67
2023/07/23 11:59:08;;;;;;;45.45;30.90;;;31.20;99.90;;;;;;5059283;28;20448;-68
2023/07/23 12:01:37;;;;;;;40.83;27.48;;;31.10;99.90;;;;;;5054241;28;20067;-67
2023/07/23 12:04:06;;;;;;;41.58;28.55;;;31.00;99.90;;;;;;5054836;28;20432;-67
2023/07/23 12:06:34;;;;;;;39.78;27.75;;;31.00;99.90;;;;;;5055187;28;20118;-67
2023/07/23 12:09:05;;;;;;;40.83;28.27;;;31.10;99.90;;;;;;5055317;28;20045;-67
2023/07/23 12:11:32;;;;;;;36.58;25.90;;;31.00;99.90;;;;;;5053832;28;20018;-67
2023/07/23 12:14:05;;;;;;;41.65;26.83;;;31.00;99.90;;;;;;5053199;28;20029;-67
2023/07/23 12:16:34;;;;;;;47.55;27.27;;;31.00;99.90;;;;;;5053540;28;20036;-67
2023/07/23 12:19:03;;;;;;;39.78;27.15;;;31.00;99.90;;;;;;5054548;28;20033;-67
2023/07/23 12:21:30;;;;;;;34.92;24.13;;;30.90;99.90;;;;;;5054854;28;20017;-67
2023/07/23 12:23:56;;;;;;;34.92;24.15;;;30.90;99.90;;;;;;5054665;28;20045;-67
2023/07/23 12:26:23;;;;;;;40.97;22.60;;;30.80;99.90;;;;;;5054656;28;20045;-67
2023/07/23 12:28:49;;;;;;;34.90;22.75;;;30.70;99.90;;;;;;5053781;28;20382;-66
2023/07/23 12:31:16;;;;;;;38.33;22.50;;;30.70;99.90;;;;;;5055036;28;20021;-67
2023/07/23 12:33:42;;;;;;;35.80;22.27;;;30.70;99.90;;;;;;5054749;28;20029;-67
2023/07/23 12:36:09;;;;;;;32.65;20.27;;;30.70;99.90;;;;;;5054992;28;20025;-67
2023/07/23 12:38:35;;;;;;;31.02;20.05;;;30.70;99.90;;;;;;5054860;28;20100;-67
2023/07/23 12:41:02;;;;;;;34.53;20.30;;;30.70;99.90;;;;;;5054643;28;20473;-67
2023/07/23 12:43:29;;;;;;;28.05;18.25;;;30.60;99.90;;;;;;5054714;28;20025;-67
2023/07/23 12:45:56;;;;;;;28.73;19.65;;;30.60;99.90;;;;;;5053982;28;20358;-67
2023/07/23 12:48:22;;;;;;;34.67;20.45;;;30.50;99.90;;;;;;5054416;28;20017;-67
2023/07/23 12:50:48;;;;;;;30.33;18.73;;;30.50;99.90;;;;;;5054592;28;20155;-67
2023/07/23 12:53:15;;;;;;;29.85;19.50;;;30.50;99.90;;;;;;5054622;28;20032;-66
2023/07/23 12:55:41;;;;;;;28.20;17.38;;;30.50;99.90;;;;;;5054318;28;20421;-67
2023/07/23 12:58:08;;;;;;;34.78;18.98;;;30.50;99.90;;;;;;5054443;28;20017;-67
2023/07/23 13:00:35;;;;;;;36.55;16.98;;;30.40;99.90;;;;;;5054368;28;20052;-67
2023/07/23 13:03:02;;;;;;;28.42;16.13;;;30.40;99.90;;;;;;5054232;28;20478;-67
2023/07/23 13:05:28;;;;;;;29.67;16.48;;;30.40;99.90;;;;;;5054360;28;20036;-67
2023/07/23 13:07:55;;;;;;;23.95;15.90;;;30.40;99.90;;;;;;5054227;28;20079;-66
2023/07/23 13:10:21;;;;;;;29.50;15.18;;;30.40;99.90;;;;;;5054070;28;20025;-69